Погода Жатаизинхона неделю

Парана, Бразилия

19 - 25 июля
  • 19июля
    Сегодня
    +15°
    +28°
    Ясно и безоблачно
    ВремяПогодаТемператураВлажностьДавлениеВетер, м/сВероятность осадков
    00:00Ясно и безоблачно+19°C79 %729 мм1.9 м/с5 %
    03:00Ясно и безоблачно+18°C78 %729 мм0.8 м/с5 %
    06:00Ясно и безоблачно+16°C88 %730 мм1.9 м/с5 %
    09:00Ясно и безоблачно+19°C78 %732 мм1.3 м/с5 %
    12:00Ясно и безоблачно+25°C55 %732 мм2.1 м/с5 %
    15:00Ясно и безоблачно+27°C43 %730 мм1.6 м/с5 %
    18:00Ясно и безоблачно+25°C56 %730 мм1.6 м/с5 %
    21:00Ясно и безоблачно+20°C84 %730 мм2.1 м/с5 %
  • 20июля
    Суббота
    +13°
    +28°
    Ясно и безоблачно
    ВремяПогодаТемператураВлажностьДавлениеВетер, м/сВероятность осадков
    00:00Ясно и безоблачно+18°C89 %731 мм1.7 м/с5 %
    03:00Ясно и безоблачно+16°C92 %729 мм2.0 м/с5 %
    06:00Ясно и безоблачно+15°C94 %729 мм1.7 м/с5 %
    09:00Ясно и безоблачно+18°C79 %731 мм1.4 м/с5 %
    12:00Ясно и безоблачно+25°C45 %731 мм2.5 м/с5 %
    15:00Ясно и безоблачно+27°C33 %729 мм1.9 м/с5 %
    18:00Ясно и безоблачно+23°C53 %728 мм2.3 м/с5 %
    21:00Ясно и безоблачно+18°C73 %728 мм2.6 м/с5 %
  • 21июля
    Воскресенье
    +15°
    +27°
    Ясно и безоблачно
    ВремяПогодаТемператураВлажностьДавлениеВетер, м/сВероятность осадков
    00:00Ясно и безоблачно+17°C79 %729 мм2.2 м/с5 %
    03:00Ясно и безоблачно+16°C76 %728 мм2.0 м/с5 %
    06:00Ясно и безоблачно+14°C84 %728 мм2.3 м/с5 %
    09:00Ясно и безоблачно+17°C65 %730 мм1.2 м/с5 %
    12:00Ясно и безоблачно+23°C50 %730 мм1.8 м/с5 %
    15:00Ясно и безоблачно+27°C46 %728 мм1.2 м/с5 %
    18:00Ясно и безоблачно+25°C59 %728 мм2.0 м/с5 %
    21:00Ясно и безоблачно+20°C82 %728 мм2.1 м/с5 %
  • 22июля
    Понедельник
    +16°
    +29°
    Ясно и безоблачно
    ВремяПогодаТемператураВлажностьДавлениеВетер, м/сВероятность осадков
    00:00Ясно и безоблачно+18°C90 %729 мм1.8 м/с5 %
    03:00Ясно и безоблачно+17°C91 %728 мм2.0 м/с5 %
    06:00Ясно и безоблачно+16°C94 %729 мм1.8 м/с5 %
    09:00Ясно и безоблачно+19°C77 %730 мм1.1 м/с5 %
    12:00Ясно и безоблачно+26°C51 %731 мм1.0 м/с5 %
    15:00Ясно и безоблачно+28°C37 %729 мм0.3 м/с5 %
    18:00Ясно и безоблачно+26°C50 %729 мм1.5 м/с5 %
    21:00Ясно и безоблачно+21°C77 %729 мм2.0 м/с5 %
Мы используем cookies
Соглашаюсь